sensor_id;sensor_type;location;lat;lon;timestamp;pressure;altitude;pressure_sealevel;temperature;humidity
3832;BME280;12460;42.662;23.288;2023-02-12T00:14:22;95449.50;;;2.94;33.81
3832;BME280;12460;42.662;23.288;2023-02-12T00:29:26;95457.06;;;2.93;33.83
3832;BME280;12460;42.662;23.288;2023-02-12T00:44:31;95433.56;;;2.94;34.27
3832;BME280;12460;42.662;23.288;2023-02-12T00:59:37;95413.88;;;2.92;34.28
3832;BME280;12460;42.662;23.288;2023-02-12T01:14:43;95413.88;;;2.92;34.60
3832;BME280;12460;42.662;23.288;2023-02-12T01:29:47;95426.03;;;3.00;34.69
3832;BME280;12460;42.662;23.288;2023-02-12T01:45:51;95420.47;;;3.06;35.24
3832;BME280;12460;42.662;23.288;2023-02-12T02:00:58;95391.16;;;2.88;36.01
3832;BME280;12460;42.662;23.288;2023-02-12T02:16:14;95407.31;;;2.84;36.73
3832;BME280;12460;42.662;23.288;2023-02-12T02:31:42;95397.19;;;2.81;36.97
3832;BME280;12460;42.662;23.288;2023-02-12T02:46:51;95396.66;;;2.82;37.72
3832;BME280;12460;42.662;23.288;2023-02-12T03:02:01;95409.38;;;3.00;38.38
3832;BME280;12460;42.662;23.288;2023-02-12T03:17:17;95411.94;;;3.09;38.93
3832;BME280;12460;42.662;23.288;2023-02-12T03:32:29;95399.34;;;3.30;38.88
3832;BME280;12460;42.662;23.288;2023-02-12T04:02:55;95393.31;;;3.48;39.52
3832;BME280;12460;42.662;23.288;2023-02-12T04:18:04;95403.91;;;3.44;40.08
3832;BME280;12460;42.662;23.288;2023-02-12T04:33:17;95407.44;;;3.28;40.37
3832;BME280;12460;42.662;23.288;2023-02-12T04:48:24;95417.75;;;3.22;41.02
3832;BME280;12460;42.662;23.288;2023-02-12T05:03:28;95450.59;;;3.24;41.26
3832;BME280;12460;42.662;23.288;2023-02-12T05:18:34;95456.69;;;3.28;40.74
3832;BME280;12460;42.662;23.288;2023-02-12T05:33:41;95474.84;;;3.23;42.19
3832;BME280;12460;42.662;23.288;2023-02-12T05:48:46;95483.91;;;3.13;43.65
3832;BME280;12460;42.662;23.288;2023-02-12T06:03:53;95491.41;;;2.96;45.30
3832;BME280;12460;42.662;23.288;2023-02-12T06:18:59;95488.59;;;2.90;47.67
3832;BME280;12460;42.662;23.288;2023-02-12T06:34:07;95502.78;;;2.98;50.66
3832;BME280;12460;42.662;23.288;2023-02-12T06:49:13;95512.13;;;3.00;52.12
3832;BME280;12460;42.662;23.288;2023-02-12T07:04:17;95511.38;;;3.00;52.59
3832;BME280;12460;42.662;23.288;2023-02-12T07:19:22;95520.81;;;3.19;51.21
3832;BME280;12460;42.662;23.288;2023-02-12T07:34:26;95514.53;;;3.29;51.70
3832;BME280;12460;42.662;23.288;2023-02-12T07:49:31;95538.06;;;3.39;51.64
3832;BME280;12460;42.662;23.288;2023-02-12T08:04:35;95557.78;;;3.41;51.82
3832;BME280;12460;42.662;23.288;2023-02-12T08:19:40;95547.41;;;3.36;52.68
3832;BME280;12460;42.662;23.288;2023-02-12T08:34:45;95560.06;;;3.43;53.37
3832;BME280;12460;42.662;23.288;2023-02-12T08:49:50;95582.38;;;3.60;53.35
3832;BME280;12460;42.662;23.288;2023-02-12T09:04:54;95597.09;;;3.77;53.41
3832;BME280;12460;42.662;23.288;2023-02-12T09:19:59;95613.31;;;3.89;53.51
3832;BME280;12460;42.662;23.288;2023-02-12T09:35:05;95609.03;;;4.05;53.07
3832;BME280;12460;42.662;23.288;2023-02-12T09:50:26;95610.31;;;4.04;53.28
3832;BME280;12460;42.662;23.288;2023-02-12T10:05:40;95630.34;;;4.13;53.19
3832;BME280;12460;42.662;23.288;2023-02-12T10:36:41;95626.22;;;5.53;50.47
3832;BME280;12460;42.662;23.288;2023-02-12T10:52:08;95624.72;;;5.52;50.24
3832;BME280;12460;42.662;23.288;2023-02-12T11:07:16;95622.91;;;6.28;49.18
3832;BME280;12460;42.662;23.288;2023-02-12T11:22:20;95627.75;;;6.22;48.82
3832;BME280;12460;42.662;23.288;2023-02-12T11:37:25;95626.72;;;6.66;47.94
3832;BME280;12460;42.662;23.288;2023-02-12T11:52:35;95611.31;;;7.19;47.56
3832;BME280;12460;42.662;23.288;2023-02-12T12:07:46;95600.09;;;7.43;46.32
3832;BME280;12460;42.662;23.288;2023-02-12T12:22:59;95622.84;;;7.34;45.58
3832;BME280;12460;42.662;23.288;2023-02-12T12:38:22;95631.19;;;7.10;46.31
3832;BME280;12460;42.662;23.288;2023-02-12T12:53:57;95645.44;;;7.12;46.22
3832;BME280;12460;42.662;23.288;2023-02-12T13:24:42;95670.19;;;6.62;47.69
3832;BME280;12460;42.662;23.288;2023-02-12T13:39:50;95660.22;;;6.31;47.32
3832;BME280;12460;42.662;23.288;2023-02-12T14:10:09;95697.91;;;6.08;49.42
3832;BME280;12460;42.662;23.288;2023-02-12T14:25:39;95727.16;;;5.85;49.84
3832;BME280;12460;42.662;23.288;2023-02-12T14:40:46;95742.34;;;5.73;50.57
3832;BME280;12460;42.662;23.288;2023-02-12T14:55:51;95757.06;;;5.62;50.27
3832;BME280;12460;42.662;23.288;2023-02-12T15:11:25;95777.63;;;5.42;51.08
3832;BME280;12460;42.662;23.288;2023-02-12T15:26:30;95825.53;;;5.35;51.14
3832;BME280;12460;42.662;23.288;2023-02-12T15:41:38;95838.97;;;5.20;51.74
3832;BME280;12460;42.662;23.288;2023-02-12T15:56:43;95844.97;;;5.02;53.29
3832;BME280;12460;42.662;23.288;2023-02-12T16:11:49;95884.44;;;4.84;53.93
3832;BME280;12460;42.662;23.288;2023-02-12T16:26:54;95905.66;;;4.70;54.97
3832;BME280;12460;42.662;23.288;2023-02-12T16:41:59;95929.34;;;4.49;55.50
3832;BME280;12460;42.662;23.288;2023-02-12T16:57:04;95940.38;;;4.33;56.15
3832;BME280;12460;42.662;23.288;2023-02-12T17:12:08;95964.50;;;4.10;55.87
3832;BME280;12460;42.662;23.288;2023-02-12T17:27:12;95987.81;;;3.87;56.60
3832;BME280;12460;42.662;23.288;2023-02-12T17:42:17;95999.78;;;3.67;58.07
3832;BME280;12460;42.662;23.288;2023-02-12T17:57:21;96034.38;;;3.66;58.25
3832;BME280;12460;42.662;23.288;2023-02-12T18:12:26;96028.91;;;3.51;57.64
3832;BME280;12460;42.662;23.288;2023-02-12T18:27:31;96022.91;;;3.59;57.41
3832;BME280;12460;42.662;23.288;2023-02-12T18:42:36;96039.13;;;3.60;57.55
3832;BME280;12460;42.662;23.288;2023-02-12T18:57:41;96048.84;;;3.70;56.76
3832;BME280;12460;42.662;23.288;2023-02-12T19:12:45;96082.94;;;3.65;58.16
3832;BME280;12460;42.662;23.288;2023-02-12T19:27:50;96082.94;;;3.65;57.93
3832;BME280;12460;42.662;23.288;2023-02-12T19:42:56;96078.41;;;3.68;57.40
3832;BME280;12460;42.662;23.288;2023-02-12T19:58:01;96104.41;;;3.65;58.17
3832;BME280;12460;42.662;23.288;2023-02-12T20:13:05;96123.44;;;3.51;58.58
3832;BME280;12460;42.662;23.288;2023-02-12T20:28:11;96135.16;;;3.21;58.64
3832;BME280;12460;42.662;23.288;2023-02-12T20:43:16;96127.53;;;3.01;58.55
3832;BME280;12460;42.662;23.288;2023-02-12T20:58:21;96134.28;;;2.80;58.79
3832;BME280;12460;42.662;23.288;2023-02-12T21:13:25;96156.13;;;2.58;58.99
3832;BME280;12460;42.662;23.288;2023-02-12T21:28:30;96164.75;;;2.31;59.07
3832;BME280;12460;42.662;23.288;2023-02-12T21:43:36;96171.44;;;2.24;59.54
3832;BME280;12460;42.662;23.288;2023-02-12T21:58:42;96196.88;;;2.23;59.96
3832;BME280;12460;42.662;23.288;2023-02-12T22:13:47;96196.88;;;2.23;60.43
3832;BME280;12460;42.662;23.288;2023-02-12T22:28:54;96208.47;;;2.21;61.66
3832;BME280;12460;42.662;23.288;2023-02-12T22:44:00;96222.97;;;2.16;62.07
3832;BME280;12460;42.662;23.288;2023-02-12T22:59:05;96223.84;;;2.07;62.65
3832;BME280;12460;42.662;23.288;2023-02-12T23:14:10;96237.41;;;2.05;62.33
3832;BME280;12460;42.662;23.288;2023-02-12T23:29:15;96248.38;;;2.00;63.00
3832;BME280;12460;42.662;23.288;2023-02-12T23:44:20;96255.34;;;1.95;63.56
3832;BME280;12460;42.662;23.288;2023-02-12T23:59:25;96249.91;;;1.77;63.62
